Time;durP1;ratioP1;P1;durP2;ratioP2;P2;SDS_P1;SDS_P2;PMS_P1;PMS_P2;Temp;Humidity;BMP_temperature;BMP_pressure;BME280_temperature;BME280_humidity;BME280_pressure;Samples;Min_cycle;Max_cycle;Signal;HPM_P1;HPM_P2
2022/06/26 00:01:30;;;;;;;20.30;17.03;;;;;;;17.79;100.00;101082.28;5117042;28;20028;-59
2022/06/26 00:03:55;;;;;;;19.67;17.67;;;;;;;17.79;100.00;101086.69;5116769;28;20285;-59
2022/06/26 00:06:20;;;;;;;18.13;16.27;;;;;;;17.78;100.00;101079.69;5116757;28;20031;-59
2022/06/26 00:08:46;;;;;;;19.77;17.63;;;;;;;17.81;100.00;101071.63;5116880;28;20027;-59
2022/06/26 00:11:11;;;;;;;19.75;17.67;;;;;;;17.81;100.00;101075.13;5116565;28;20028;-59
2022/06/26 00:13:36;;;;;;;19.52;17.45;;;;;;;17.80;100.00;101088.44;5116557;28;20430;-59
2022/06/26 00:16:02;;;;;;;20.23;16.95;;;;;;;17.76;100.00;101089.47;5116887;28;20096;-58
2022/06/26 00:18:27;;;;;;;18.90;16.92;;;;;;;17.68;100.00;101084.44;5116863;28;20031;-59
2022/06/26 00:20:53;;;;;;;19.55;17.15;;;;;;;17.70;100.00;101085.25;5116440;28;20494;-58
2022/06/26 00:23:18;;;;;;;19.38;17.13;;;;;;;17.70;100.00;101088.78;5116263;28;20397;-59
2022/06/26 00:25:44;;;;;;;18.45;16.42;;;;;;;17.68;100.00;101095.91;5116321;28;20346;-59
2022/06/26 00:28:09;;;;;;;21.90;16.15;;;;;;;17.66;100.00;101088.97;5116306;28;20114;-59
2022/06/26 00:30:34;;;;;;;19.17;15.55;;;;;;;17.65;100.00;101089.91;5116497;28;20081;-59
2022/06/26 00:32:59;;;;;;;16.55;14.18;;;;;;;17.65;100.00;101093.41;5116391;28;20031;-58
2022/06/26 00:35:25;;;;;;;18.77;14.13;;;;;;;17.65;100.00;101098.69;5116176;28;20081;-59
2022/06/26 00:37:50;;;;;;;16.40;14.45;;;;;;;17.60;100.00;101107.69;5116067;28;20362;-58
2022/06/26 00:40:16;;;;;;;17.13;14.50;;;;;;;17.59;100.00;101109.47;5116252;28;20508;-58
2022/06/26 00:42:41;;;;;;;16.70;14.80;;;;;;;17.54;100.00;101108.78;5116091;28;20031;-59
2022/06/26 00:45:08;;;;;;;16.75;14.95;;;;;;;17.48;100.00;101118.75;5115398;28;20035;-59
2022/06/26 00:47:33;;;;;;;18.00;14.25;;;;;;;17.52;100.00;101118.56;5116112;28;20032;-59
2022/06/26 00:49:59;;;;;;;17.13;14.93;;;;;;;17.45;100.00;101122.38;5115933;28;20039;-58
2022/06/26 00:52:26;;;;;;;17.70;15.18;;;;;;;17.47;100.00;101128.47;5115948;28;20347;-58
2022/06/26 00:54:52;;;;;;;19.65;15.68;;;;;;;17.44;100.00;101135.66;5116261;28;20032;-58
2022/06/26 00:57:18;;;;;;;17.20;15.32;;;;;;;17.45;100.00;101137.38;5116417;28;20039;-58
2022/06/26 00:59:44;;;;;;;17.40;15.00;;;;;;;17.48;100.00;101135.50;5115775;28;20061;-59
2022/06/26 01:02:09;;;;;;;18.73;16.25;;;;;;;17.48;100.00;101130.19;5097717;28;20120;-59
2022/06/26 01:04:34;;;;;;;18.92;16.65;;;;;;;17.44;100.00;101127.72;5115925;28;20040;-59
2022/06/26 01:07:00;;;;;;;18.38;16.38;;;;;;;17.47;100.00;101128.47;5116251;28;20110;-59
2022/06/26 01:09:26;;;;;;;21.02;17.20;;;;;;;17.49;100.00;101134.53;5115799;28;20043;-58
2022/06/26 01:11:51;;;;;;;21.92;17.90;;;;;;;17.34;100.00;101113.94;5115734;28;20024;-58
2022/06/26 01:14:17;;;;;;;23.58;18.67;;;;;;;17.42;100.00;101135.69;5115625;28;20031;-58
2022/06/26 01:16:43;;;;;;;20.58;17.90;;;;;;;17.41;100.00;101139.25;5115681;28;20077;-58
2022/06/26 01:19:09;;;;;;;21.92;18.38;;;;;;;17.38;100.00;101144.66;5115836;28;20168;-58
2022/06/26 01:21:35;;;;;;;20.73;17.70;;;;;;;17.34;100.00;101154.50;5114988;28;20439;-58
2022/06/26 01:24:01;;;;;;;23.23;18.73;;;;;;;17.32;100.00;101151.03;5115312;28;20494;-58
2022/06/26 01:26:27;;;;;;;21.88;17.92;;;;;;;17.38;100.00;101142.03;5115475;28;20035;-58
2022/06/26 01:28:53;;;;;;;19.30;17.20;;;;;;;17.35;100.00;101150.94;5115486;28;20109;-58
2022/06/26 01:31:19;;;;;;;23.42;18.05;;;;;;;17.28;100.00;101156.50;5115031;28;20027;-58
2022/06/26 01:33:46;;;;;;;20.10;17.35;;;;;;;17.25;100.00;101159.25;5115494;28;20096;-57
2022/06/26 01:36:11;;;;;;;20.33;17.88;;;;;;;17.27;100.00;101160.06;5114856;28;20032;-58
2022/06/26 01:38:37;;;;;;;20.30;18.13;;;;;;;17.18;100.00;101149.81;5114994;28;20039;-59
2022/06/26 01:41:02;;;;;;;23.00;18.35;;;;;;;17.19;100.00;101154.19;5115200;28;20036;-59
2022/06/26 01:43:30;;;;;;;21.38;19.17;;;;;;;17.15;100.00;101145.50;5115418;28;20106;-60
2022/06/26 01:45:56;;;;;;;21.45;18.60;;;;;;;17.19;100.00;101151.53;5115772;28;20434;-58
2022/06/26 01:48:24;;;;;;;23.17;19.00;;;;;;;17.10;100.00;101151.88;5115416;28;20047;-59
2022/06/26 01:50:50;;;;;;;23.48;20.15;;;;;;;17.12;100.00;101148.28;5115157;28;20032;-59
2022/06/26 01:53:15;;;;;;;22.58;19.55;;;;;;;17.07;100.00;101150.19;5115351;28;20312;-59
2022/06/26 01:55:41;;;;;;;23.63;20.30;;;;;;;17.09;100.00;101144.88;5115715;28;20039;-59
2022/06/26 01:58:07;;;;;;;23.35;19.10;;;;;;;17.07;100.00;101150.19;5119296;28;20039;-59
2022/06/26 02:00:35;;;;;;;23.50;20.33;;;;;;;17.05;100.00;101150.25;5119374;28;20035;-59
2022/06/26 02:03:02;;;;;;;24.98;20.00;;;;;;;17.01;100.00;101140.69;5119498;28;20028;-58
2022/06/26 02:05:27;;;;;;;22.48;19.60;;;;;;;17.07;100.00;101139.63;5119432;28;20518;-58
2022/06/26 02:07:54;;;;;;;23.90;20.40;;;;;;;17.03;100.00;101140.66;5119151;28;20105;-58
2022/06/26 02:15:49;;;;;;;24.73;20.15;;;;;;;16.99;100.00;101121.38;5118832;28;20058;-60
2022/06/26 02:18:15;;;;;;;24.00;20.98;;;;;;;16.95;100.00;101124.22;5118704;28;20043;-58
2022/06/26 02:20:42;;;;;;;23.35;19.83;;;;;;;16.94;100.00;101123.34;5119138;28;20035;-58
2022/06/26 02:23:07;;;;;;;23.55;20.95;;;;;;;16.85;100.00;101118.34;5118936;28;20421;-58
2022/06/26 02:25:33;;;;;;;22.02;18.73;;;;;;;16.90;100.00;101120.84;5118937;28;20035;-58
2022/06/26 02:27:58;;;;;;;22.42;19.60;;;;;;;16.85;100.00;101126.28;5118926;28;20038;-59
2022/06/26 02:30:23;;;;;;;23.00;19.58;;;;;;;16.86;100.00;101129.78;5118686;28;20116;-59
2022/06/26 02:32:49;;;;;;;24.40;19.30;;;;;;;16.81;100.00;101124.66;5118651;28;20100;-59
2022/06/26 02:35:14;;;;;;;24.75;19.42;;;;;;;16.80;100.00;101138.78;5118724;28;20020;-58
2022/06/26 02:37:39;;;;;;;26.15;18.50;;;;;;;16.70;100.00;101132.09;5118716;28;20054;-59
2022/06/26 02:40:06;;;;;;;24.65;18.00;;;;;;;16.64;100.00;101141.09;5118709;28;20054;-59
2022/06/26 02:42:32;;;;;;;22.42;16.85;;;;;;;16.50;100.00;101153.88;5118766;28;20307;-59
2022/06/26 02:44:57;;;;;;;22.40;17.65;;;;;;;16.44;100.00;101163.78;5118502;28;20046;-59
2022/06/26 02:47:22;;;;;;;23.95;16.88;;;;;;;16.31;100.00;101160.66;5118210;28;20024;-58
2022/06/26 02:49:48;;;;;;;22.55;16.95;;;;;;;16.28;100.00;101164.25;5118543;28;20437;-58
2022/06/26 02:52:13;;;;;;;25.60;17.10;;;;;;;16.21;100.00;101161.88;5118103;28;20063;-58
2022/06/26 02:54:38;;;;;;;20.40;15.88;;;;;;;16.20;100.00;101168.94;5118303;28;20339;-58
2022/06/26 02:57:04;;;;;;;23.15;16.90;;;;;;;16.13;100.00;101167.38;5118588;28;20041;-58
2022/06/26 02:59:29;;;;;;;21.60;16.45;;;;;;;16.18;100.00;101168.13;5118079;28;20034;-58
2022/06/26 03:01:54;;;;;;;21.73;16.98;;;;;;;16.13;100.00;101177.94;5117863;28;20415;-59
2022/06/26 03:04:20;;;;;;;24.35;17.52;;;;;;;16.13;100.00;101180.59;5118018;28;20043;-59
2022/06/26 03:06:45;;;;;;;22.25;17.40;;;;;;;16.05;100.00;101185.25;5118157;28;20039;-59
2022/06/26 03:09:10;;;;;;;22.00;17.08;;;;;;;16.06;100.00;101172.91;5117456;28;20070;-59
2022/06/26 03:11:36;;;;;;;21.50;16.30;;;;;;;16.07;100.00;101175.53;5117523;28;20027;-59
2022/06/26 03:14:02;;;;;;;21.08;16.20;;;;;;;16.04;100.00;101180.03;5117884;28;20031;-60
2022/06/26 03:16:27;;;;;;;21.45;15.48;;;;;;;16.04;100.00;101187.94;5117740;28;20111;-59
2022/06/26 03:18:52;;;;;;;23.17;15.70;;;;;;;15.99;100.00;101193.34;5118129;28;20064;-58
2022/06/26 03:21:18;;;;;;;18.35;15.30;;;;;;;15.89;100.00;101199.81;5117687;28;20038;-58
2022/06/26 03:24:01;;;;;;;21.10;15.35;;;;;;;15.87;100.00;101204.28;5117709;28;20023;-58
2022/06/26 03:26:31;;;;;;;23.77;15.80;;;;;;;15.83;100.00;101203.50;5117666;28;20498;-58
2022/06/26 03:28:57;;;;;;;22.02;14.43;;;;;;;15.79;100.00;101206.25;5117247;28;20082;-58
2022/06/26 03:31:22;;;;;;;17.25;13.90;;;;;;;15.78;100.00;101194.84;5117394;28;20063;-59
2022/06/26 03:33:48;;;;;;;18.63;14.35;;;;;;;15.76;100.00;101201.94;5117483;28;20365;-58
2022/06/26 03:36:14;;;;;;;20.40;13.80;;;;;;;15.73;100.00;101203.81;5117796;28;20039;-58
2022/06/26 03:38:39;;;;;;;19.20;13.23;;;;;;;15.69;100.00;101220.66;5117578;28;20031;-59
2022/06/26 03:41:05;;;;;;;20.45;12.48;;;;;;;15.67;100.00;101218.06;5117331;28;20050;-59
2022/06/26 03:43:30;;;;;;;19.13;13.20;;;;;;;15.62;100.00;101217.31;5117239;28;20027;-58
2022/06/26 03:45:56;;;;;;;18.45;13.43;;;;;;;15.66;100.00;101230.38;5117338;28;20358;-58
2022/06/26 03:48:21;;;;;;;16.77;12.27;;;;;;;15.65;100.00;101236.56;5117289;28;20168;-58
2022/06/26 03:50:46;;;;;;;18.77;12.60;;;;;;;15.65;100.00;101228.66;5117275;28;20028;-58
2022/06/26 03:53:12;;;;;;;18.50;12.00;;;;;;;15.63;100.00;101230.47;5117284;28;20065;-59
2022/06/26 03:55:37;;;;;;;15.93;11.75;;;;;;;15.65;100.00;101231.28;5117063;28;20031;-59
2022/06/26 03:58:03;;;;;;;17.75;11.80;;;;;;;15.54;100.00;101238.59;5117177;28;20032;-59
2022/06/26 04:00:29;;;;;;;17.02;11.35;;;;;;;15.60;100.00;101233.16;5117178;28;20486;-58
2022/06/26 04:02:55;;;;;;;15.05;10.57;;;;;;;15.56;100.00;101230.69;5117093;28;20168;-58
2022/06/26 04:05:20;;;;;;;15.38;11.27;;;;;;;15.53;100.00;101222.81;5116860;28;20407;-58
2022/06/26 04:07:46;;;;;;;14.55;11.07;;;;;;;15.37;100.00;101196.00;5117333;28;20100;-59
2022/06/26 04:10:11;;;;;;;16.08;10.52;;;;;;;15.51;100.00;101222.84;5116987;28;20046;-58
2022/06/26 04:12:36;;;;;;;12.95;9.80;;;;;;;15.57;100.00;101222.72;5116818;28;20059;-58
2022/06/26 04:15:02;;;;;;;17.58;10.50;;;;;;;15.50;100.00;101223.75;5116634;28;20470;-59
2022/06/26 04:17:28;;;;;;;15.98;10.10;;;;;;;15.51;100.00;101228.13;5116800;28;20028;-58
2022/06/26 04:19:53;;;;;;;13.93;9.80;;;;;;;15.64;100.00;101231.31;5116126;28;20343;-58
2022/06/26 04:22:19;;;;;;;15.02;10.38;;;;;;;15.66;100.00;101232.16;5116404;28;20110;-59
2022/06/26 04:24:44;;;;;;;14.45;10.05;;;;;;;15.62;100.00;101235.78;5116524;28;20089;-58
2022/06/26 04:27:10;;;;;;;15.20;10.00;;;;;;;15.71;100.00;101240.81;5116285;28;20027;-58
2022/06/26 04:29:35;;;;;;;13.02;9.93;;;;;;;15.68;100.00;101248.81;5116416;28;20055;-58
2022/06/26 04:32:00;;;;;;;17.50;10.65;;;;;;;15.69;100.00;101253.19;5116311;28;20038;-59
2022/06/26 04:34:26;;;;;;;15.80;10.70;;;;;;;15.65;100.00;101255.03;5116958;28;20111;-58
2022/06/26 04:36:51;;;;;;;16.08;10.05;;;;;;;15.65;100.00;101262.06;5116336;28;20100;-58
2022/06/26 04:39:17;;;;;;;17.45;10.50;;;;;;;15.58;100.00;101266.69;5116425;28;20469;-58
2022/06/26 04:41:42;;;;;;;14.80;10.77;;;;;;;15.64;100.00;101268.25;5116053;28;20051;-59
2022/06/26 04:44:11;;;;;;;18.00;10.70;;;;;;;15.65;100.00;101272.63;5115788;28;20070;-58
2022/06/26 04:46:39;;;;;;;15.00;10.07;;;;;;;15.72;100.00;101287.41;5116313;28;20043;-58
2022/06/26 04:49:05;;;;;;;16.42;10.52;;;;;;;15.77;100.00;101287.25;5115955;28;20091;-59
2022/06/26 04:51:31;;;;;;;17.00;10.73;;;;;;;15.88;100.00;101287.84;5115968;28;20047;-59
2022/06/26 04:53:57;;;;;;;18.17;10.80;;;;;;;15.87;100.00;101297.53;5115988;28;20442;-59
2022/06/26 04:56:22;;;;;;;17.15;10.20;;;;;;;16.00;100.00;101290.97;5115913;28;20028;-59
2022/06/26 04:58:48;;;;;;;17.65;10.27;;;;;;;16.00;100.00;101290.97;5115500;28;20063;-59
2022/06/26 05:01:15;;;;;;;18.63;10.10;;;;;;;16.09;100.00;101284.59;5115744;28;20035;-59
2022/06/26 05:03:40;;;;;;;15.25;9.57;;;;;;;16.09;100.00;101289.88;5115842;28;20032;-58
2022/06/26 05:06:05;;;;;;;17.65;10.13;;;;;;;16.14;100.00;101287.94;5115980;28;20434;-59
2022/06/26 05:08:31;;;;;;;15.57;10.30;;;;;;;16.16;100.00;101286.13;5116187;28;20106;-60
2022/06/26 05:10:56;;;;;;;14.02;9.73;;;;;;;16.23;100.00;101286.81;5116247;28;20357;-58
2022/06/26 05:13:21;;;;;;;14.73;10.10;;;;;;;16.22;100.00;101291.22;5116392;28;20045;-59
2022/06/26 05:15:46;;;;;;;22.55;10.23;;;;;;;16.21;100.00;101289.50;5115971;28;20096;-59
2022/06/26 05:18:12;;;;;;;17.52;9.77;;;;;;;16.21;100.00;101297.41;5115624;28;20412;-58
2022/06/26 05:20:37;;;;;;;19.05;10.07;;;;;;;16.16;100.00;101299.31;5115794;28;20050;-57
2022/06/26 05:23:03;;;;;;;16.70;10.23;;;;;;;16.08;100.00;101293.41;5115750;28;20087;-60
2022/06/26 05:25:28;;;;;;;14.70;9.70;;;;;;;16.06;100.00;101299.66;5115551;28;20031;-59
2022/06/26 05:27:53;;;;;;;16.23;9.52;;;;;;;15.97;100.00;101293.72;5115744;28;20046;-59
2022/06/26 05:30:19;;;;;;;17.13;9.75;;;;;;;15.93;100.00;101299.97;5115926;28;20086;-59
2022/06/26 05:32:44;;;;;;;17.15;9.93;;;;;;;15.91;100.00;101295.66;5115426;28;20072;-59
2022/06/26 05:35:10;;;;;;;20.58;10.15;;;;;;;15.96;100.00;101285.81;5115808;28;20031;-59
2022/06/26 05:37:35;;;;;;;19.38;9.90;;;;;;;16.01;100.00;101295.34;5115942;28;20078;-59
2022/06/26 05:40:01;;;;;;;21.02;10.05;;;;;;;16.11;100.00;101295.06;5115313;28;20028;-58
2022/06/26 05:42:26;;;;;;;19.63;10.20;;;;;;;16.21;100.00;101297.41;5115433;28;20035;-60
2022/06/26 05:44:51;;;;;;;15.73;9.60;;;;;;;16.17;100.00;101305.47;5115091;28;20342;-59
2022/06/26 05:47:17;;;;;;;19.55;9.90;;;;;;;16.19;100.00;101317.72;5115225;28;20054;-59
2022/06/26 05:49:42;;;;;;;19.63;10.25;;;;;;;16.17;100.00;101324.81;5115520;28;20031;-59
2022/06/26 05:52:07;;;;;;;18.83;9.70;;;;;;;16.17;100.00;101324.81;5115401;28;20039;-59
2022/06/26 05:54:32;;;;;;;15.90;9.68;;;;;;;16.20;100.00;101331.78;5115273;28;20351;-59
2022/06/26 05:56:58;;;;;;;17.30;9.63;;;;;;;16.29;100.00;101339.44;5115108;28;20125;-59
2022/06/26 05:59:23;;;;;;;17.92;9.77;;;;;;;16.43;100.00;101336.41;5114961;28;20034;-59
2022/06/26 06:01:48;;;;;;;16.40;9.55;;;;;;;17.32;100.00;101330.06;5115414;28;20032;-57
2022/06/26 06:04:14;;;;;;;15.77;8.70;;;;;;;17.89;96.01;101332.50;5115006;28;20035;-59
2022/06/26 06:06:39;;;;;;;13.05;8.13;;;;;;;18.02;94.68;101346.16;5114874;28;20438;-58
2022/06/26 06:09:05;;;;;;;13.23;7.85;;;;;;;17.90;93.37;101352.78;5115314;28;20106;-58
2022/06/26 06:11:30;;;;;;;12.48;8.18;;;;;;;17.68;93.94;101346.50;5115024;28;20031;-58
2022/06/26 06:13:55;;;;;;;11.38;7.38;;;;;;;17.51;95.39;101343.53;5115481;28;20063;-58
2022/06/26 06:16:20;;;;;;;12.10;7.63;;;;;;;17.32;96.35;101344.16;5115277;28;20415;-60
2022/06/26 06:18:46;;;;;;;12.73;7.97;;;;;;;17.28;96.23;101342.53;5114954;28;20035;-58
2022/06/26 06:21:11;;;;;;;11.18;7.50;;;;;;;17.39;97.30;101336.88;5115057;28;20046;-58
2022/06/26 06:23:37;;;;;;;12.20;7.05;;;;;;;17.51;96.72;101335.59;5115026;28;20067;-59
2022/06/26 06:26:03;;;;;;;13.85;7.38;;;;;;;17.59;95.19;101330.91;5114916;28;20031;-58
2022/06/26 06:28:28;;;;;;;12.82;7.07;;;;;;;17.70;95.45;101327.00;5114631;28;20103;-58
2022/06/26 06:30:53;;;;;;;11.65;7.05;;;;;;;17.74;93.82;101344.50;5115158;28;20031;-59
2022/06/26 06:33:19;;;;;;;15.38;7.15;;;;;;;17.82;94.03;101338.09;5115563;28;20076;-59
2022/06/26 06:35:44;;;;;;;13.57;7.20;;;;;;;17.87;93.27;101354.66;5115104;28;20350;-58
2022/06/26 06:38:09;;;;;;;10.73;6.65;;;;;;;17.87;92.01;101362.59;5115155;28;20370;-59
2022/06/26 06:40:35;;;;;;;11.32;6.43;;;;;;;17.92;93.30;101356.25;5114723;28;20028;-59
2022/06/26 06:43:00;;;;;;;12.10;6.35;;;;;;;17.98;92.43;101352.53;5114662;28;20426;-58
2022/06/26 06:45:26;;;;;;;9.65;6.88;;;;;;;18.06;93.20;101359.25;5118218;28;20227;-59
2022/06/26 06:47:51;;;;;;;11.55;6.82;;;;;;;18.07;93.25;101370.72;5118565;28;20093;-58
2022/06/26 06:50:17;;;;;;;12.77;6.90;;;;;;;17.99;91.80;101381.59;5118707;28;20437;-59
2022/06/26 06:52:42;;;;;;;12.07;6.20;;;;;;;17.96;92.10;101387.00;5118309;28;20028;-60
2022/06/26 06:55:08;;;;;;;12.55;6.50;;;;;;;17.87;91.36;101389.94;5118443;28;20115;-59
2022/06/26 06:57:33;;;;;;;9.38;6.20;;;;;;;18.01;93.16;101408.00;5118138;28;20039;-58
2022/06/26 06:59:58;;;;;;;9.80;6.30;;;;;;;18.09;92.07;101411.25;5118122;28;20470;-59
2022/06/26 07:02:24;;;;;;;9.68;6.10;;;;;;;18.28;92.77;101414.97;5118333;28;20080;-59
2022/06/26 07:04:49;;;;;;;10.40;6.00;;;;;;;18.46;90.31;101423.19;5118253;28;20070;-58
2022/06/26 07:07:14;;;;;;;10.48;5.57;;;;;;;18.47;89.27;101419.59;5118166;28;20115;-59
2022/06/26 07:09:40;;;;;;;11.48;6.18;;;;;;;18.42;89.10;101423.28;5118025;28;20024;-59
2022/06/26 07:12:05;;;;;;;10.48;5.90;;;;;;;18.55;89.80;101430.78;5118079;28;20036;-59
2022/06/26 07:14:31;;;;;;;11.70;5.90;;;;;;;18.65;89.85;101426.91;5117852;28;20331;-59
2022/06/26 07:16:56;;;;;;;9.30;6.03;;;;;;;18.65;87.57;101429.56;5117943;28;20039;-59
2022/06/26 07:19:21;;;;;;;12.25;5.93;;;;;;;18.56;86.91;101429.84;5117966;28;20032;-58
2022/06/26 07:21:47;;;;;;;10.70;6.13;;;;;;;18.49;87.86;101428.38;5117832;28;20035;-59
2022/06/26 07:24:13;;;;;;;7.25;5.45;;;;;;;18.50;86.26;101423.03;5118062;28;20031;-58
2022/06/26 07:26:40;;;;;;;10.18;5.88;;;;;;;18.52;87.23;101417.66;5117532;28;20024;-59
2022/06/26 07:29:06;;;;;;;7.55;5.72;;;;;;;18.53;86.47;101430.81;5117374;28;20100;-58
2022/06/26 07:31:31;;;;;;;9.48;5.88;;;;;;;18.49;86.13;101431.03;5117483;28;20027;-58
2022/06/26 07:34:16;;;;;;;10.07;5.90;;;;;;;18.41;86.44;101437.47;5117704;28;20034;-58
2022/06/26 07:36:43;;;;;;;10.32;5.75;;;;;;;18.46;86.71;101449.69;5117701;28;20338;-58
2022/06/26 07:39:15;;;;;;;6.70;5.50;;;;;;;18.43;87.96;101435.63;5117548;28;20407;-58
2022/06/26 07:41:42;;;;;;;9.82;6.30;;;;;;;18.48;86.90;101431.94;5117447;28;20084;-58
2022/06/26 07:44:07;;;;;;;8.27;5.50;;;;;;;18.58;89.01;101438.63;5117354;28;20040;-58
2022/06/26 07:46:34;;;;;;;10.20;5.50;;;;;;;18.55;87.21;101433.44;5117424;28;20028;-58
2022/06/26 07:49:00;;;;;;;7.25;5.32;;;;;;;18.53;87.66;101432.66;5117384;28;20088;-58
2022/06/26 07:51:26;;;;;;;7.63;5.90;;;;;;;18.57;85.12;101440.41;5117446;28;20028;-58
2022/06/26 07:53:51;;;;;;;7.50;4.80;;;;;;;18.58;88.22;101436.84;5117322;28;20472;-58
2022/06/26 07:56:17;;;;;;;8.10;5.20;;;;;;;18.63;86.36;101440.22;5117069;28;20038;-58
2022/06/26 07:58:42;;;;;;;6.70;5.50;;;;;;;18.63;87.60;101437.56;5116926;28;20032;-58
2022/06/26 08:01:07;;;;;;;6.70;5.25;;;;;;;18.74;88.51;101456.59;5117008;28;20026;-58
2022/06/26 08:03:33;;;;;;;6.32;4.93;;;;;;;18.80;87.09;101449.34;5109404;28;20096;-58
2022/06/26 08:05:58;;;;;;;7.40;5.05;;;;;;;18.80;86.41;101455.50;5107059;28;20023;-58
2022/06/26 08:08:23;;;;;;;9.32;4.82;;;;;;;18.81;86.26;101461.66;5105279;28;20028;-58
2022/06/26 08:10:49;;;;;;;7.45;5.20;;;;;;;18.81;85.42;101459.03;5100705;28;20038;-51
2022/06/26 08:13:15;;;;;;;8.98;5.18;;;;;;;18.79;86.61;101461.72;5097849;28;20023;-60
2022/06/26 08:15:40;;;;;;;6.55;5.07;;;;;;;18.70;84.38;101454.13;5095474;28;20122;-59
2022/06/26 08:18:07;;;;;;;8.45;5.50;;;;;;;18.58;85.35;101462.47;5095709;28;20027;-60
2022/06/26 08:20:33;;;;;;;6.80;4.60;;;;;;;18.55;87.82;101462.59;5095996;28;20035;-60
2022/06/26 08:22:58;;;;;;;8.30;4.95;;;;;;;18.55;85.52;101466.09;5099732;28;20024;-60
2022/06/26 08:25:23;;;;;;;6.68;5.30;;;;;;;18.49;84.92;101470.78;5116510;28;20024;-60
2022/06/26 08:27:49;;;;;;;6.53;4.72;;;;;;;18.43;85.92;101467.41;5116220;28;20046;-60
2022/06/26 08:30:14;;;;;;;8.23;5.30;;;;;;;18.40;86.81;101470.19;5115776;28;20055;-59
2022/06/26 08:32:39;;;;;;;9.80;4.68;;;;;;;18.51;88.02;101459.22;5116379;28;20119;-58
2022/06/26 08:35:06;;;;;;;7.38;5.00;;;;;;;18.51;85.33;101459.22;5104720;28;20032;-59
2022/06/26 08:37:32;;;;;;;6.50;4.50;;;;;;;18.66;86.27;101450.72;5095460;28;20035;-60
2022/06/26 08:39:57;;;;;;;8.45;5.25;;;;;;;18.75;87.72;101441.53;5097167;28;20480;-59
2022/06/26 08:42:25;;;;;;;7.75;5.15;;;;;;;18.77;84.07;101455.63;5094160;28;20123;-58
2022/06/26 08:44:51;;;;;;;8.50;5.00;;;;;;;18.78;85.40;101467.94;5095584;28;20028;-60
2022/06/26 08:47:19;;;;;;;8.23;4.90;;;;;;;18.81;85.67;101475.78;5095571;28;20101;-59
2022/06/26 08:49:45;;;;;;;7.65;5.18;;;;;;;18.78;84.99;101467.94;5096171;28;20036;-58
2022/06/26 08:52:15;;;;;;;7.25;4.85;;;;;;;18.73;84.92;101475.19;5095237;28;20039;-59
2022/06/26 08:54:40;;;;;;;6.50;4.43;;;;;;;18.68;84.37;101479.84;5095677;28;20050;-59
2022/06/26 08:57:06;;;;;;;7.68;4.40;;;;;;;18.69;83.86;101470.97;5095526;28;20537;-60
2022/06/26 08:59:31;;;;;;;6.70;4.35;;;;;;;18.70;83.47;101470.03;5095422;28;20100;-61
2022/06/26 09:01:57;;;;;;;8.32;4.10;;;;;;;18.83;83.94;101468.66;5095330;28;20075;-59
2022/06/26 09:04:22;;;;;;;7.53;4.25;;;;;;;18.73;80.58;101464.59;5095412;28;20032;-59
2022/06/26 09:06:48;;;;;;;7.80;4.10;;;;;;;18.72;81.53;101484.06;5094731;28;20028;-59
2022/06/26 09:09:22;;;;;;;5.45;3.60;;;;;;;18.71;82.56;101485.00;5095575;28;20027;-59
2022/06/26 09:11:49;;;;;;;5.10;3.55;;;;;;;18.75;80.82;101478.66;5095297;28;20110;-59
2022/06/26 09:14:15;;;;;;;4.43;3.55;;;;;;;18.86;80.54;101468.53;5095545;28;20032;-59
2022/06/26 09:16:45;;;;;;;5.93;3.80;;;;;;;18.94;80.98;101469.09;5097084;28;20040;-59
2022/06/26 09:19:18;;;;;;;4.88;3.47;;;;;;;18.93;81.34;101466.50;5094860;28;20024;-60
2022/06/26 09:21:44;;;;;;;7.93;3.80;;;;;;;18.99;81.21;101464.50;5094721;28;20108;-59
2022/06/26 09:24:12;;;;;;;4.35;3.45;;;;;;;18.92;77.65;101460.31;5095076;28;20111;-59
2022/06/26 09:26:39;;;;;;;5.70;3.42;;;;;;;18.98;80.44;101473.38;5095258;28;20036;-59
2022/06/26 09:29:09;;;;;;;5.50;3.40;;;;;;;19.07;79.24;101470.34;5102434;28;20131;-59
2022/06/26 09:31:36;;;;;;;4.95;2.90;;;;;;;19.16;78.46;101481.53;5094634;28;20156;-58
2022/06/26 09:34:03;;;;;;;3.83;3.00;;;;;;;19.07;75.79;101486.25;5094829;28;20047;-59
2022/06/26 09:36:28;;;;;;;6.32;3.25;;;;;;;19.13;76.48;101487.84;5094990;28;20023;-60
2022/06/26 09:38:53;;;;;;;6.57;3.28;;;;;;;19.23;77.12;101480.34;5095027;28;20166;-60
2022/06/26 09:41:30;;;;;;;5.15;3.10;;;;;;;19.22;77.62;101471.53;5094819;28;20040;-59
2022/06/26 09:43:57;;;;;;;4.60;3.20;;;;;;;19.18;77.77;101479.69;5093070;28;20462;-58
2022/06/26 09:46:29;;;;;;;4.05;3.33;;;;;;;19.29;78.15;101485.44;5093059;28;20060;-58
2022/06/26 09:48:57;;;;;;;4.50;3.42;;;;;;;19.31;78.33;101486.25;5093493;28;20062;-58
2022/06/26 09:51:23;;;;;;;4.68;3.20;;;;;;;19.48;79.38;101482.00;5093217;28;20043;-60
2022/06/26 09:53:49;;;;;;;6.55;3.30;;;;;;;19.51;77.28;101480.19;5092997;28;20035;-59
2022/06/26 09:56:15;;;;;;;4.70;3.22;;;;;;;19.46;77.09;101489.16;5093035;28;20035;-59
2022/06/26 09:58:40;;;;;;;5.57;3.60;;;;;;;19.43;77.30;101493.72;5092778;28;20028;-60
2022/06/26 10:06:54;;;;;;;5.03;2.80;;;;;;;19.65;75.60;101494.63;5110086;28;20051;-60
2022/06/26 10:09:19;;;;;;;5.80;3.08;;;;;;;19.71;75.50;101493.53;5114059;28;20320;-61
2022/06/26 10:11:45;;;;;;;5.60;2.50;;;;;;;19.74;75.11;101498.72;5114826;28;20027;-59
2022/06/26 10:14:32;;;;;;;6.03;3.13;;;;;;;19.74;74.25;101504.84;5114721;28;20054;-58
2022/06/26 10:17:29;;;;;;;4.47;2.90;;;;;;;19.71;75.65;101509.47;5114999;28;20027;-59
2022/06/26 10:20:02;;;;;;;7.40;3.50;;;;;;;19.48;75.46;101510.34;5118762;28;20027;-58
2022/06/26 10:22:37;;;;;;;4.93;3.47;;;;;;;19.37;76.32;101526.69;5112093;28;20089;-58
2022/06/26 10:25:02;;;;;;;9.10;3.70;;;;;;;19.40;74.14;101517.72;5110166;28;20351;-58
2022/06/26 10:27:33;;;;;;;5.63;3.47;;;;;;;19.56;74.74;101502.13;5115690;28;20036;-60
2022/06/26 10:30:13;;;;;;;6.05;3.88;;;;;;;19.85;75.66;101511.53;5118377;28;20054;-59
2022/06/26 10:32:39;;;;;;;8.57;4.10;;;;;;;19.91;75.47;101511.31;5118392;28;20035;-58
2022/06/26 10:35:05;;;;;;;7.75;4.22;;;;;;;19.92;74.38;101510.34;5111028;28;20108;-59
2022/06/26 10:37:47;;;;;;;7.07;4.00;;;;;;;19.92;74.64;101508.56;5105817;28;20035;-58
2022/06/26 10:43:13;;;;;;;6.65;4.03;;;;;;;19.91;73.45;101513.97;5086755;28;20046;-60
2022/06/26 10:45:40;;;;;;;6.13;4.07;;;;;;;20.01;75.29;101513.50;5117674;28;20415;-54
2022/06/26 10:48:18;;;;;;;7.35;3.70;;;;;;;20.26;73.36;101507.16;5106048;28;20028;-59
2022/06/26 10:50:45;;;;;;;7.47;3.10;;;;;;;20.34;71.02;101507.66;5097953;28;20081;-58
2022/06/26 10:53:21;;;;;;;7.28;3.00;;;;;;;20.41;70.84;101501.19;5106680;28;20031;-59
2022/06/26 10:55:59;;;;;;;6.68;3.15;;;;;;;20.61;69.90;101514.47;5117463;28;20028;-59
2022/06/26 10:58:33;;;;;;;5.65;2.95;;;;;;;20.66;70.01;101512.47;5118211;28;20091;-59
2022/06/26 11:01:02;;;;;;;6.03;3.10;;;;;;;20.74;69.04;101510.34;5118187;28;20051;-59
2022/06/26 11:03:28;;;;;;;6.25;2.97;;;;;;;20.90;69.42;101521.16;5117811;28;20042;-59
2022/06/26 11:06:07;;;;;;;5.93;2.70;;;;;;;20.88;68.71;101519.50;5118569;28;20035;-60
2022/06/26 11:08:44;;;;;;;4.97;2.53;;;;;;;20.95;69.42;101511.16;5117710;28;20156;-59
2022/06/26 11:11:15;;;;;;;5.47;2.42;;;;;;;21.01;69.07;101508.22;5118017;28;20118;-59
2022/06/26 11:13:49;;;;;;;4.88;2.60;;;;;;;21.05;68.03;101501.81;5118050;28;20373;-60
2022/06/26 11:16:15;;;;;;;6.25;2.60;;;;;;;20.89;65.64;101487.50;5117590;28;20028;-60
2022/06/26 11:18:41;;;;;;;6.72;2.80;;;;;;;20.79;66.46;101499.47;5117639;28;20031;-59
2022/06/26 11:21:06;;;;;;;6.90;2.80;;;;;;;20.70;66.12;101484.81;5117961;28;20031;-58
2022/06/26 11:23:34;;;;;;;4.70;2.60;;;;;;;20.81;66.51;101484.31;5117585;28;20339;-59